Time;durP1;ratioP1;P1;durP2;ratioP2;P2;SDS_P1;SDS_P2;PMS_P1;PMS_P2;Temp;Humidity;BMP_temperature;BMP_pressure;BME280_temperature;BME280_humidity;BME280_pressure;Samples;Min_cycle;Max_cycle;Signal;HPM_P1;HPM_P2
2022/05/29 00:00:14;;;;;;;1.02;0.50;;;20.40;59.50;;;;;;5106134;27;47439;-66
2022/05/29 00:02:42;;;;;;;1.27;0.60;;;20.40;59.50;;;;;;5105623;27;45098;-66
2022/05/29 00:05:11;;;;;;;0.73;0.40;;;20.40;59.50;;;;;;5102537;27;45207;-66
2022/05/29 00:07:39;;;;;;;0.95;0.38;;;20.40;59.40;;;;;;5105513;27;45314;-66
2022/05/29 00:10:10;;;;;;;0.90;0.50;;;20.40;59.20;;;;;;5109068;27;47358;-66
2022/05/29 00:12:39;;;;;;;1.33;0.50;;;20.40;59.10;;;;;;5108821;27;45521;-66
2022/05/29 00:15:07;;;;;;;3.10;0.60;;;20.40;59.60;;;;;;5109138;27;45299;-65
2022/05/29 00:17:34;;;;;;;1.42;0.60;;;20.40;59.60;;;;;;5110326;27;45249;-66
2022/05/29 00:20:03;;;;;;;1.80;0.73;;;20.30;59.60;;;;;;5108885;27;46590;-66
2022/05/29 00:22:32;;;;;;;1.10;0.57;;;20.30;59.40;;;;;;5109708;27;45668;-66
2022/05/29 00:24:58;;;;;;;0.45;0.30;;;20.30;59.60;;;;;;5110605;27;45252;-66
2022/05/29 00:27:25;;;;;;;1.08;0.40;;;20.40;59.80;;;;;;5110559;27;45545;-66
2022/05/29 00:29:52;;;;;;;1.35;0.50;;;20.40;59.70;;;;;;5106294;27;47385;-66
2022/05/29 00:32:19;;;;;;;1.60;0.65;;;20.30;59.20;;;;;;5110706;27;45634;-66
2022/05/29 00:34:46;;;;;;;1.27;0.47;;;20.30;59.40;;;;;;5110326;27;46089;-66
2022/05/29 00:37:14;;;;;;;0.95;0.52;;;20.30;59.80;;;;;;5108743;27;45697;-66
2022/05/29 00:39:41;;;;;;;0.63;0.43;;;20.30;60.10;;;;;;5105273;27;46298;-66
2022/05/29 00:42:13;;;;;;;1.35;0.35;;;20.30;59.50;;;;;;5111202;27;45189;-66
2022/05/29 00:44:40;;;;;;;1.33;0.40;;;20.40;59.60;;;;;;5110095;27;45295;-66
2022/05/29 00:47:13;;;;;;;1.33;0.45;;;20.40;59.50;;;;;;5108422;27;45281;-66
2022/05/29 00:49:41;;;;;;;3.03;0.60;;;20.40;59.50;;;;;;5108494;27;47574;-66
2022/05/29 00:52:14;;;;;;;2.25;0.57;;;20.40;59.40;;;;;;5110707;27;45243;-66
2022/05/29 00:54:46;;;;;;;0.45;0.35;;;20.40;59.30;;;;;;5107664;27;45414;-66
2022/05/29 00:57:16;;;;;;;0.88;0.40;;;20.40;59.30;;;;;;5108489;27;45540;-66
2022/05/29 00:59:44;;;;;;;0.98;0.40;;;20.40;59.40;;;;;;5107472;27;46285;-66
2022/05/29 01:02:11;;;;;;;0.30;0.30;;;20.40;59.10;;;;;;5109245;27;45230;-66
2022/05/29 01:04:40;;;;;;;0.98;0.50;;;20.40;59.00;;;;;;5110064;27;45175;-66
2022/05/29 01:07:09;;;;;;;0.70;0.40;;;20.40;58.90;;;;;;5109172;27;45480;-66
2022/05/29 01:09:38;;;;;;;0.73;0.47;;;20.40;59.20;;;;;;5096851;27;46266;-66
2022/05/29 01:12:15;;;;;;;0.32;0.30;;;20.40;59.30;;;;;;5105006;27;45392;-66
2022/05/29 01:14:51;;;;;;;0.95;0.30;;;20.40;59.60;;;;;;5110004;27;45198;-66
2022/05/29 01:17:25;;;;;;;0.30;0.30;;;20.30;59.40;;;;;;5108886;27;45346;-66
2022/05/29 01:20:07;;;;;;;1.02;0.40;;;20.30;59.20;;;;;;5108553;27;46251;-66
2022/05/29 01:23:13;;;;;;;1.38;0.45;;;20.30;59.20;;;;;;5107304;27;45841;-66
2022/05/29 01:26:25;;;;;;;0.65;0.30;;;20.30;59.20;;;;;;5065477;27;46764;-66
2022/05/29 01:28:56;;;;;;;0.80;0.32;;;20.30;58.90;;;;;;5060549;27;45311;-66
2022/05/29 01:31:38;;;;;;;1.25;0.40;;;20.30;58.80;;;;;;5103850;27;45248;-66
2022/05/29 01:34:20;;;;;;;0.50;0.40;;;20.30;59.70;;;;;;5106657;27;45364;-66
2022/05/29 01:36:51;;;;;;;0.57;0.30;;;20.30;59.40;;;;;;5105421;27;45145;-66
2022/05/29 01:39:25;;;;;;;0.85;0.30;;;20.40;59.50;;;;;;5104919;27;45781;-66
2022/05/29 01:41:57;;;;;;;0.90;0.30;;;20.30;59.30;;;;;;5108899;27;46254;-65
2022/05/29 01:44:33;;;;;;;0.43;0.30;;;20.30;58.80;;;;;;5101734;27;45385;-66
2022/05/29 01:47:07;;;;;;;0.88;0.40;;;20.30;58.90;;;;;;5106689;27;45423;-66
2022/05/29 01:49:38;;;;;;;1.52;0.30;;;20.40;58.90;;;;;;5108908;27;45288;-66
2022/05/29 01:52:11;;;;;;;0.70;0.20;;;20.40;58.90;;;;;;5108660;27;45421;-65
2022/05/29 01:54:42;;;;;;;1.92;0.57;;;20.40;58.80;;;;;;5108177;27;45389;-66
2022/05/29 01:57:12;;;;;;;1.58;0.60;;;20.40;59.10;;;;;;5106868;27;45279;-66
2022/05/29 01:59:46;;;;;;;2.85;0.80;;;20.30;58.60;;;;;;5106189;27;46510;-66
2022/05/29 02:02:18;;;;;;;0.57;0.40;;;20.40;58.60;;;;;;5109455;27;47863;-66
2022/05/29 02:04:48;;;;;;;1.00;0.40;;;20.30;58.80;;;;;;5106886;27;45579;-66
2022/05/29 02:10:19;;;;;;;1.35;0.60;;;20.30;58.50;;;;;;5085112;28;45378;-66
2022/05/29 02:12:52;;;;;;;2.38;0.50;;;20.30;59.10;;;;;;5101993;27;46177;-66
2022/05/29 02:15:28;;;;;;;1.73;0.65;;;20.30;58.80;;;;;;5108070;27;45212;-66
2022/05/29 02:17:58;;;;;;;0.90;0.50;;;20.30;58.70;;;;;;5109335;27;45195;-66
2022/05/29 02:20:28;;;;;;;2.83;0.60;;;20.30;58.50;;;;;;5107746;27;45195;-66
2022/05/29 02:23:04;;;;;;;0.82;0.43;;;20.30;58.60;;;;;;5108301;27;47397;-66
2022/05/29 02:25:31;;;;;;;2.42;0.70;;;20.30;58.60;;;;;;5106737;27;45164;-65
2022/05/29 02:28:03;;;;;;;0.93;0.40;;;20.30;58.50;;;;;;5107887;27;45248;-66
2022/05/29 02:30:41;;;;;;;1.10;0.40;;;20.30;58.70;;;;;;5104614;27;45275;-66
2022/05/29 02:33:13;;;;;;;1.20;0.43;;;20.30;58.50;;;;;;5105657;27;45510;-66
2022/05/29 02:35:50;;;;;;;1.00;0.40;;;20.30;58.70;;;;;;5107870;27;45907;-65
2022/05/29 02:38:23;;;;;;;1.00;0.40;;;20.30;58.50;;;;;;5108029;27;45211;-66
2022/05/29 02:40:59;;;;;;;0.68;0.40;;;20.30;58.40;;;;;;5106290;27;45252;-66
2022/05/29 02:43:37;;;;;;;0.40;0.30;;;20.40;58.50;;;;;;5098180;27;45985;-65
2022/05/29 02:46:13;;;;;;;0.57;0.40;;;20.30;58.50;;;;;;5106116;27;45245;-66
2022/05/29 02:48:45;;;;;;;1.83;0.65;;;20.40;58.30;;;;;;5105280;27;45418;-66
2022/05/29 02:51:18;;;;;;;0.77;0.32;;;20.40;58.50;;;;;;5107471;27;45184;-65
2022/05/29 02:53:47;;;;;;;0.60;0.32;;;20.40;58.60;;;;;;5108252;27;47659;-66
2022/05/29 02:56:15;;;;;;;0.93;0.45;;;20.40;58.10;;;;;;5106325;27;45693;-66
2022/05/29 02:58:46;;;;;;;0.82;0.47;;;20.40;58.20;;;;;;5105405;27;45262;-66
2022/05/29 03:01:36;;;;;;;0.57;0.40;;;20.40;58.20;;;;;;5108044;27;45258;-66
2022/05/29 03:04:17;;;;;;;0.75;0.50;;;20.30;58.20;;;;;;5103661;27;48184;-66
2022/05/29 03:06:49;;;;;;;1.85;0.47;;;20.30;58.60;;;;;;5106326;27;45249;-66
2022/05/29 03:09:35;;;;;;;1.20;0.50;;;20.40;58.50;;;;;;5101706;27;45195;-66
2022/05/29 03:12:09;;;;;;;0.98;0.45;;;20.30;58.30;;;;;;5107724;27;45180;-66
2022/05/29 03:14:44;;;;;;;2.00;0.47;;;20.30;58.50;;;;;;5107350;27;47201;-66
2022/05/29 03:17:21;;;;;;;0.52;0.30;;;20.30;58.40;;;;;;5106027;27;45332;-66
2022/05/29 03:19:54;;;;;;;0.60;0.40;;;20.30;58.40;;;;;;5107290;27;45210;-66
2022/05/29 03:22:32;;;;;;;1.10;0.43;;;20.30;58.30;;;;;;5085799;27;45321;-66
2022/05/29 03:25:05;;;;;;;1.63;0.60;;;20.30;58.50;;;;;;5105697;27;46306;-66
2022/05/29 03:27:38;;;;;;;2.03;0.73;;;20.30;58.50;;;;;;5106171;27;45233;-65
2022/05/29 03:30:10;;;;;;;1.10;0.50;;;20.30;58.50;;;;;;5107418;27;45301;-66
2022/05/29 03:32:39;;;;;;;0.60;0.32;;;20.30;58.60;;;;;;5103550;27;45359;-66
2022/05/29 03:35:18;;;;;;;0.88;0.40;;;20.30;58.40;;;;;;5103724;27;46291;-65
2022/05/29 03:37:45;;;;;;;0.65;0.32;;;20.40;58.50;;;;;;5107294;27;46699;-66
2022/05/29 03:40:13;;;;;;;0.90;0.50;;;20.40;58.50;;;;;;5106185;27;45314;-65
2022/05/29 03:42:40;;;;;;;1.17;0.40;;;20.40;58.50;;;;;;5105972;27;45280;-65
2022/05/29 03:45:09;;;;;;;1.30;0.30;;;20.30;58.60;;;;;;5105762;27;46621;-65
2022/05/29 03:47:38;;;;;;;1.70;0.57;;;20.40;58.60;;;;;;5094359;27;45349;-66
2022/05/29 03:50:07;;;;;;;0.75;0.45;;;20.40;58.70;;;;;;5100002;27;45518;-66
2022/05/29 03:52:35;;;;;;;1.55;0.45;;;20.40;58.50;;;;;;5103754;27;45412;-66
2022/05/29 03:55:03;;;;;;;2.90;0.60;;;20.30;58.60;;;;;;5103930;27;46037;-66
2022/05/29 03:57:29;;;;;;;0.70;0.40;;;20.30;58.70;;;;;;5106174;27;45207;-66
2022/05/29 03:59:56;;;;;;;0.70;0.32;;;20.30;58.60;;;;;;5105368;27;45343;-66
2022/05/29 04:02:23;;;;;;;0.57;0.40;;;20.30;58.80;;;;;;5106632;27;45233;-65
2022/05/29 04:04:51;;;;;;;0.43;0.25;;;20.30;58.80;;;;;;5105217;27;45337;-66
2022/05/29 04:07:18;;;;;;;0.77;0.40;;;20.30;59.00;;;;;;5105969;27;45446;-66
2022/05/29 04:12:30;;;;;;;0.70;0.40;;;20.30;58.80;;;;;;5104502;27;45276;-65
2022/05/29 04:14:57;;;;;;;0.40;0.30;;;20.30;58.90;;;;;;5107493;27;47281;-66
2022/05/29 04:17:23;;;;;;;0.63;0.32;;;20.30;59.00;;;;;;5300147;22;45720;-65
2022/05/29 04:19:51;;;;;;;1.33;0.43;;;20.30;59.00;;;;;;5105829;27;45383;-65
2022/05/29 04:22:22;;;;;;;1.10;0.43;;;20.30;59.10;;;;;;5105806;27;45527;-65
2022/05/29 04:24:49;;;;;;;1.88;0.50;;;20.30;59.40;;;;;;5102029;27;46659;-65
2022/05/29 04:27:17;;;;;;;0.40;0.40;;;20.30;59.00;;;;;;5100851;27;45333;-65
2022/05/29 04:29:44;;;;;;;0.85;0.50;;;20.30;59.10;;;;;;5107006;27;45164;-65
2022/05/29 04:34:56;;;;;;;1.38;0.45;;;20.30;59.20;;;;;;5106106;27;45522;-65
2022/05/29 04:37:24;;;;;;;0.68;0.40;;;20.30;59.10;;;;;;5105998;27;45217;-65
2022/05/29 04:39:50;;;;;;;1.02;0.38;;;20.30;59.30;;;;;;5104260;27;45296;-65
2022/05/29 04:42:18;;;;;;;0.43;0.32;;;20.30;59.10;;;;;;5104873;27;45393;-65
2022/05/29 04:44:45;;;;;;;1.58;0.35;;;20.30;59.20;;;;;;5105724;27;47928;-65
2022/05/29 04:47:12;;;;;;;1.60;0.68;;;20.30;59.20;;;;;;5104535;27;45506;-65
2022/05/29 04:49:40;;;;;;;1.08;0.60;;;20.30;59.00;;;;;;5104747;27;45229;-65
2022/05/29 04:52:10;;;;;;;1.20;0.50;;;20.30;58.90;;;;;;5105163;27;45358;-65
2022/05/29 04:54:38;;;;;;;2.13;0.70;;;20.30;59.20;;;;;;5110109;27;45319;-65
2022/05/29 04:57:07;;;;;;;0.88;0.55;;;20.30;59.30;;;;;;5109199;27;45285;-65
2022/05/29 04:59:33;;;;;;;1.05;0.50;;;20.30;59.30;;;;;;5108795;27;45361;-65
2022/05/29 05:02:01;;;;;;;1.10;0.70;;;20.30;59.30;;;;;;5107302;27;45325;-65
2022/05/29 05:04:29;;;;;;;2.10;0.60;;;20.20;58.90;;;;;;5115094;27;47100;-65
2022/05/29 05:06:58;;;;;;;2.58;0.65;;;20.20;59.10;;;;;;5112454;27;45223;-65
2022/05/29 05:09:26;;;;;;;1.27;0.50;;;20.20;58.90;;;;;;5108036;27;45293;-65
2022/05/29 05:11:54;;;;;;;1.13;0.40;;;20.20;59.10;;;;;;5106536;27;45358;-65
2022/05/29 05:14:22;;;;;;;2.13;0.38;;;20.30;59.60;;;;;;5108796;27;47408;-65
2022/05/29 05:16:49;;;;;;;0.95;0.47;;;20.20;59.50;;;;;;5105272;27;45254;-65
2022/05/29 05:19:17;;;;;;;0.95;0.50;;;20.20;60.00;;;;;;5109919;27;45279;-65
2022/05/29 05:21:44;;;;;;;0.85;0.80;;;20.20;60.00;;;;;;5106444;27;45512;-65
2022/05/29 05:24:11;;;;;;;1.02;0.50;;;20.20;59.90;;;;;;5107368;27;46635;-65
2022/05/29 05:26:39;;;;;;;0.60;0.47;;;20.30;59.90;;;;;;5107057;27;45448;-65
2022/05/29 05:29:06;;;;;;;0.68;0.40;;;20.20;59.90;;;;;;5111581;27;45222;-65
2022/05/29 05:31:33;;;;;;;1.38;0.60;;;20.20;59.90;;;;;;5106411;27;45264;-65
2022/05/29 05:34:00;;;;;;;1.88;0.50;;;20.20;59.90;;;;;;5103185;27;45574;-65
2022/05/29 05:36:27;;;;;;;1.73;0.70;;;20.20;59.80;;;;;;5106328;27;45236;-65
2022/05/29 05:38:55;;;;;;;0.85;0.50;;;20.30;60.00;;;;;;5108075;27;45248;-65
2022/05/29 05:41:22;;;;;;;1.15;0.47;;;20.30;60.00;;;;;;5106828;27;45343;-65
2022/05/29 05:43:50;;;;;;;2.47;0.70;;;20.30;60.10;;;;;;5106906;27;47957;-65
2022/05/29 05:46:18;;;;;;;0.40;0.30;;;20.30;60.10;;;;;;5106353;27;45662;-65
2022/05/29 05:48:48;;;;;;;1.58;0.50;;;20.20;60.00;;;;;;5107169;27;45343;-64
2022/05/29 05:51:15;;;;;;;1.00;0.32;;;20.20;60.10;;;;;;5104060;27;46267;-64
2022/05/29 05:53:42;;;;;;;0.45;0.38;;;20.30;60.20;;;;;;5106750;27;46586;-65
2022/05/29 05:56:12;;;;;;;1.00;0.63;;;20.20;60.20;;;;;;5107674;27;45384;-65
2022/05/29 05:58:39;;;;;;;1.20;0.40;;;20.20;60.20;;;;;;5107324;27;45590;-65
2022/05/29 06:01:09;;;;;;;1.42;0.65;;;20.30;60.20;;;;;;5107777;27;45223;-65
2022/05/29 06:03:37;;;;;;;1.05;0.50;;;20.20;60.20;;;;;;5107404;27;45307;-65
2022/05/29 06:06:04;;;;;;;1.85;0.73;;;20.20;60.20;;;;;;5107764;27;45270;-65
2022/05/29 06:08:31;;;;;;;1.70;0.70;;;20.20;60.00;;;;;;5101604;27;47078;-65
2022/05/29 06:10:58;;;;;;;1.00;0.50;;;20.20;60.30;;;;;;5102639;27;45379;-65
2022/05/29 06:13:25;;;;;;;1.15;0.50;;;20.20;60.70;;;;;;5103512;27;47101;-65
2022/05/29 06:15:52;;;;;;;0.82;0.40;;;20.20;60.60;;;;;;5106209;27;45241;-65
2022/05/29 06:18:20;;;;;;;1.48;0.50;;;20.20;60.40;;;;;;5106272;27;45315;-65
2022/05/29 06:20:48;;;;;;;0.85;0.52;;;20.20;60.40;;;;;;5105268;27;45398;-65
2022/05/29 06:23:15;;;;;;;0.85;0.50;;;20.20;60.30;;;;;;5108179;27;45216;-65
2022/05/29 06:25:43;;;;;;;0.63;0.50;;;20.30;60.40;;;;;;5108535;27;45281;-65
2022/05/29 06:28:10;;;;;;;1.27;0.50;;;20.30;60.30;;;;;;5105301;27;45278;-65
2022/05/29 06:30:37;;;;;;;0.45;0.30;;;20.30;60.40;;;;;;5105629;27;45337;-65
2022/05/29 06:33:04;;;;;;;0.52;0.40;;;20.30;60.40;;;;;;5108260;27;45196;-65
2022/05/29 06:35:32;;;;;;;0.88;0.55;;;20.30;60.40;;;;;;5105371;27;45494;-65
2022/05/29 06:37:59;;;;;;;1.15;0.40;;;20.30;60.40;;;;;;5105704;27;45406;-65
2022/05/29 06:40:25;;;;;;;0.50;0.50;;;20.30;60.40;;;;;;5106786;27;45178;-65
2022/05/29 06:42:52;;;;;;;1.23;0.60;;;20.30;60.50;;;;;;5106408;27;47053;-65
2022/05/29 06:45:20;;;;;;;1.05;0.60;;;20.30;60.50;;;;;;5106932;27;45189;-65
2022/05/29 06:47:48;;;;;;;1.25;0.52;;;20.30;60.60;;;;;;5107823;27;45325;-64
2022/05/29 06:50:15;;;;;;;3.30;0.80;;;20.30;60.70;;;;;;5106025;27;45304;-64
2022/05/29 06:52:43;;;;;;;1.92;0.50;;;20.30;60.80;;;;;;5105976;27;46344;-65
2022/05/29 06:55:11;;;;;;;1.58;0.90;;;20.30;61.10;;;;;;5104915;27;45508;-65
2022/05/29 06:57:40;;;;;;;1.60;0.63;;;20.30;61.00;;;;;;5108607;27;45602;-65
2022/05/29 07:08:28;;;;;;;1.27;0.70;;;20.30;61.00;;;;;;5100645;27;45377;-65
2022/05/29 07:10:56;;;;;;;1.05;0.60;;;20.30;61.10;;;;;;5103829;27;45531;-65
2022/05/29 07:13:23;;;;;;;0.65;0.45;;;20.30;61.20;;;;;;5098322;27;45748;-65
2022/05/29 07:15:50;;;;;;;0.85;0.52;;;20.30;61.20;;;;;;5100982;27;45112;-65
2022/05/29 07:18:17;;;;;;;0.50;0.40;;;20.30;61.10;;;;;;5101224;27;45329;-65
2022/05/29 07:20:43;;;;;;;0.90;0.60;;;20.30;61.10;;;;;;5101978;27;45335;-65
2022/05/29 07:23:11;;;;;;;1.23;0.70;;;20.30;61.00;;;;;;5102566;27;46550;-65
2022/05/29 07:25:39;;;;;;;1.30;0.50;;;20.30;61.00;;;;;;5098827;27;45198;-65
2022/05/29 07:28:08;;;;;;;1.73;0.88;;;20.30;60.90;;;;;;5090950;27;45390;-65
2022/05/29 07:30:35;;;;;;;1.38;0.70;;;20.30;60.90;;;;;;5098703;27;45525;-65
2022/05/29 07:33:02;;;;;;;1.40;0.75;;;20.30;61.00;;;;;;5108109;27;45127;-65
2022/05/29 07:35:29;;;;;;;1.02;0.52;;;20.30;61.00;;;;;;5107837;27;45401;-65
2022/05/29 07:37:56;;;;;;;1.42;0.63;;;20.30;60.90;;;;;;5107607;27;45328;-65
2022/05/29 07:40:24;;;;;;;2.08;0.70;;;20.40;61.10;;;;;;5106353;27;45556;-65
2022/05/29 07:45:36;;;;;;;2.35;0.50;;;20.40;61.10;;;;;;5103556;27;45490;-65
2022/05/29 07:48:03;;;;;;;0.82;0.50;;;20.30;61.00;;;;;;5105990;27;45226;-65
2022/05/29 07:50:29;;;;;;;0.82;0.40;;;20.30;61.10;;;;;;5095910;27;45180;-65
2022/05/29 07:52:56;;;;;;;1.13;0.40;;;20.30;61.10;;;;;;5093747;27;45344;-65
2022/05/29 07:55:23;;;;;;;1.17;0.60;;;20.30;61.10;;;;;;5106699;27;45206;-65
2022/05/29 07:57:50;;;;;;;2.20;0.70;;;20.30;61.10;;;;;;5106159;27;45291;-65
2022/05/29 08:00:21;;;;;;;0.95;0.50;;;20.30;61.20;;;;;;5105411;27;45290;-65
2022/05/29 08:02:48;;;;;;;2.55;0.60;;;20.30;61.20;;;;;;5108493;27;45206;-65
2022/05/29 08:05:17;;;;;;;2.35;0.70;;;20.30;61.10;;;;;;5107688;27;45285;-65
2022/05/29 08:07:45;;;;;;;2.33;0.82;;;20.30;61.20;;;;;;5098566;27;45126;-65
2022/05/29 08:10:13;;;;;;;1.35;0.50;;;20.30;61.10;;;;;;5107296;27;45550;-65
2022/05/29 08:12:41;;;;;;;0.63;0.45;;;20.30;61.20;;;;;;5105779;27;47347;-65
2022/05/29 08:15:09;;;;;;;1.48;0.60;;;20.30;61.20;;;;;;5107302;27;45847;-65
2022/05/29 08:17:37;;;;;;;0.55;0.20;;;20.30;61.20;;;;;;5107769;27;45312;-65
2022/05/29 08:20:04;;;;;;;2.53;0.70;;;20.30;61.10;;;;;;5106084;27;45224;-65
2022/05/29 08:22:31;;;;;;;1.35;0.30;;;20.30;61.10;;;;;;5107914;27;47384;-65
2022/05/29 08:30:41;;;;;;;1.20;0.57;;;20.30;60.90;;;;;;5110043;27;45631;-65
2022/05/29 08:33:12;;;;;;;1.40;0.68;;;20.40;61.00;;;;;;5111528;27;46683;-65
2022/05/29 08:35:40;;;;;;;0.82;0.50;;;20.40;61.00;;;;;;5109785;27;45344;-65
2022/05/29 08:38:09;;;;;;;0.60;0.43;;;20.30;60.80;;;;;;5109934;27;45248;-65
2022/05/29 08:40:43;;;;;;;1.13;0.57;;;20.40;60.90;;;;;;5107457;27;45276;-65
2022/05/29 08:43:17;;;;;;;2.13;0.63;;;20.40;60.90;;;;;;5090468;28;46220;-65
2022/05/29 08:45:47;;;;;;;0.68;0.50;;;20.40;60.90;;;;;;5100432;27;45649;-65
2022/05/29 08:48:16;;;;;;;2.28;0.70;;;20.30;60.80;;;;;;5107333;27;45178;-65
2022/05/29 08:50:52;;;;;;;1.48;0.88;;;20.30;60.80;;;;;;5110192;27;45553;-65
2022/05/29 08:53:30;;;;;;;1.30;0.50;;;20.30;60.90;;;;;;5111139;27;47883;-65
2022/05/29 08:56:02;;;;;;;1.92;0.90;;;20.40;60.90;;;;;;5109556;27;45183;-65
2022/05/29 08:58:37;;;;;;;2.45;0.57;;;20.30;60.80;;;;;;5105752;27;45469;-65
2022/05/29 09:01:15;;;;;;;1.30;0.25;;;20.30;60.80;;;;;;5109548;27;45529;-65
2022/05/29 09:03:51;;;;;;;1.85;0.68;;;20.30;60.80;;;;;;5107837;27;45980;-65
2022/05/29 09:06:23;;;;;;;0.82;0.57;;;20.30;60.80;;;;;;5108895;27;45198;-65
2022/05/29 09:08:53;;;;;;;5.07;1.00;;;20.30;61.00;;;;;;5109963;27;45258;-65
2022/05/29 09:11:29;;;;;;;1.83;0.60;;;20.30;61.10;;;;;;5108526;27;45537;-65
2022/05/29 09:13:57;;;;;;;2.05;0.80;;;20.40;61.40;;;;;;5110772;27;45501;-65
2022/05/29 09:16:28;;;;;;;0.93;0.68;;;20.30;61.30;;;;;;5110225;27;45707;-65
2022/05/29 09:19:13;;;;;;;2.70;0.68;;;20.30;61.40;;;;;;5108192;27;45157;-65
2022/05/29 09:21:48;;;;;;;1.30;0.75;;;20.40;61.50;;;;;;5110361;27;45678;-65
2022/05/29 09:24:29;;;;;;;1.73;0.80;;;20.40;61.50;;;;;;5108245;27;46025;-65
2022/05/29 09:26:56;;;;;;;2.60;0.93;;;20.40;61.50;;;;;;5110658;27;45297;-65
2022/05/29 09:29:23;;;;;;;1.60;0.70;;;20.40;61.50;;;;;;5109708;27;45263;-65
2022/05/29 09:31:50;;;;;;;1.05;0.70;;;20.40;61.50;;;;;;5108984;27;45187;-65
2022/05/29 09:34:18;;;;;;;2.80;0.88;;;20.40;61.50;;;;;;5109012;27;46222;-65
2022/05/29 09:36:53;;;;;;;2.00;0.65;;;20.40;61.60;;;;;;5110049;27;45148;-65
2022/05/29 09:39:25;;;;;;;2.42;0.85;;;20.40;61.60;;;;;;5108551;27;45222;-65
2022/05/29 09:42:01;;;;;;;1.77;0.88;;;20.40;61.70;;;;;;5105409;27;45254;-65
2022/05/29 09:44:28;;;;;;;1.38;0.73;;;20.40;62.00;;;;;;5108932;27;45405;-65
2022/05/29 09:49:40;;;;;;;3.40;0.90;;;20.40;61.80;;;;;;5109267;27;45281;-65
2022/05/29 09:50:00;;;;;;;3.60;1.05;;;20.40;62.10;;;;;;5106901;27;45351;-66
2022/05/29 09:52:30;;;;;;;2.58;1.00;;;20.40;62.00;;;;;;5110573;27;45332;-65
2022/05/29 09:55:03;;;;;;;2.85;1.00;;;20.40;62.10;;;;;;5111582;27;47346;-65
2022/05/29 09:57:33;;;;;;;3.83;1.55;;;20.40;62.10;;;;;;5118777;27;45204;-65
2022/05/29 10:00:05;;;;;;;3.88;0.90;;;20.40;62.20;;;;;;5109903;27;45301;-65
2022/05/29 10:02:37;;;;;;;4.25;1.10;;;20.40;62.20;;;;;;5110445;27;45287;-65
2022/05/29 10:05:09;;;;;;;2.85;1.17;;;20.40;62.40;;;;;;5122588;27;47618;-65
2022/05/29 10:07:40;;;;;;;4.38;1.48;;;20.40;62.40;;;;;;5098876;27;45360;-65
2022/05/29 10:10:09;;;;;;;3.80;1.35;;;20.40;62.40;;;;;;5096753;27;45232;-65
2022/05/29 10:12:42;;;;;;;4.00;1.30;;;20.40;62.40;;;;;;5100387;27;45276;-65
2022/05/29 10:15:35;;;;;;;3.50;1.40;;;20.40;62.40;;;;;;5099033;27;45271;-65
2022/05/29 10:18:05;;;;;;;2.92;0.75;;;20.40;62.50;;;;;;5101670;27;45259;-65
2022/05/29 10:20:35;;;;;;;3.10;0.90;;;20.40;62.60;;;;;;5099840;27;45496;-65
2022/05/29 10:23:03;;;;;;;1.38;0.68;;;20.40;62.60;;;;;;5100203;27;45218;-65
2022/05/29 10:25:33;;;;;;;3.03;0.82;;;20.40;62.80;;;;;;5090328;27;47303;-64
2022/05/29 10:28:03;;;;;;;2.03;0.88;;;20.40;64.20;;;;;;5094081;27;45330;-65
2022/05/29 10:30:35;;;;;;;2.33;1.00;;;20.40;63.10;;;;;;5099345;27;45525;-65
2022/05/29 10:33:06;;;;;;;1.80;0.90;;;20.40;63.30;;;;;;5095225;27;45480;-64
2022/05/29 10:35:37;;;;;;;1.70;0.80;;;20.40;63.30;;;;;;5093639;27;47737;-65
2022/05/29 10:38:22;;;;;;;1.13;0.63;;;20.40;63.40;;;;;;5104611;27;45996;-65
2022/05/29 10:40:51;;;;;;;2.45;0.90;;;20.40;63.80;;;;;;5100748;27;45560;-65
2022/05/29 10:43:42;;;;;;;2.63;1.08;;;20.40;63.60;;;;;;5100883;27;45491;-65
2022/05/29 10:46:15;;;;;;;2.10;0.75;;;20.40;63.50;;;;;;5107043;27;46250;-65
2022/05/29 10:49:09;;;;;;;2.63;0.98;;;20.40;63.60;;;;;;5103115;27;45226;-65
2022/05/29 10:51:51;;;;;;;0.95;0.52;;;20.40;63.60;;;;;;5107559;27;45238;-65
2022/05/29 10:54:30;;;;;;;2.05;0.85;;;20.40;63.80;;;;;;5100901;27;45457;-65
2022/05/29 10:57:12;;;;;;;3.35;0.98;;;20.40;63.80;;;;;;5105049;27;46184;-65
2022/05/29 11:00:07;;;;;;;2.60;0.75;;;20.40;64.00;;;;;;5100970;27;45260;-65
2022/05/29 11:06:03;;;;;;;2.05;0.52;;;20.40;64.00;;;;;;5103594;27;45339;-65
2022/05/29 11:08:43;;;;;;;0.52;0.30;;;20.40;63.80;;;;;;5105527;27;46596;-65
2022/05/29 11:11:20;;;;;;;1.02;0.40;;;20.40;64.70;;;;;;5107599;27;45309;-65
2022/05/29 11:14:24;;;;;;;0.80;0.45;;;20.40;63.60;;;;;;5103602;27;45406;-65
2022/05/29 11:17:02;;;;;;;0.60;0.40;;;20.40;63.50;;;;;;5104621;27;45351;-65
2022/05/29 11:19:47;;;;;;;0.28;0.20;;;20.40;63.60;;;;;;5098199;27;47154;-64
2022/05/29 11:22:23;;;;;;;1.58;0.30;;;20.40;63.50;;;;;;5105829;27;45278;-65
2022/05/29 11:25:09;;;;;;;0.95;0.30;;;20.40;63.40;;;;;;5102131;27;45207;-65
2022/05/29 11:28:06;;;;;;;0.40;0.25;;;20.40;63.50;;;;;;5101468;27;45362;-65
2022/05/29 11:30:45;;;;;;;0.60;0.40;;;20.40;64.50;;;;;;5095913;27;48159;-65
2022/05/29 11:33:23;;;;;;;1.38;0.45;;;20.40;63.50;;;;;;5106298;27;45133;-65
2022/05/29 11:36:09;;;;;;;1.02;0.22;;;20.40;63.40;;;;;;5105335;27;45221;-65
2022/05/29 11:39:09;;;;;;;1.42;0.50;;;20.40;63.40;;;;;;5098431;27;45427;-65
2022/05/29 11:41:40;;;;;;;0.80;0.20;;;20.40;63.40;;;;;;5101313;27;45436;-65
2022/05/29 11:44:19;;;;;;;0.50;0.35;;;20.40;63.50;;;;;;5101672;27;45238;-65
2022/05/29 11:52:33;;;;;;;0.85;0.30;;;20.40;63.50;;;;;;5101271;27;45322;-65
2022/05/29 11:55:09;;;;;;;1.73;0.60;;;20.30;63.40;;;;;;5098473;27;45247;-65
2022/05/29 11:57:44;;;;;;;0.28;0.28;;;20.30;63.90;;;;;;5098416;27;45449;-65
2022/05/29 12:00:27;;;;;;;9.27;0.60;;;20.40;63.50;;;;;;5102461;27;46805;-65
2022/05/29 12:03:00;;;;;;;0.90;0.47;;;20.40;63.40;;;;;;5105335;27;48351;-65
2022/05/29 12:05:30;;;;;;;0.98;0.40;;;20.40;63.40;;;;;;5096585;27;45349;-65
2022/05/29 12:08:09;;;;;;;1.52;0.35;;;20.40;63.40;;;;;;5111908;27;45180;-65
2022/05/29 12:10:44;;;;;;;0.50;0.30;;;20.40;63.30;;;;;;5109305;27;45290;-65
2022/05/29 12:13:16;;;;;;;0.70;0.30;;;20.40;63.30;;;;;;5108780;27;46174;-65
2022/05/29 12:15:43;;;;;;;0.40;0.10;;;20.40;63.20;;;;;;5109803;27;45169;-65
2022/05/29 12:18:15;;;;;;;0.28;0.28;;;20.40;63.20;;;;;;5107714;27;45299;-65
2022/05/29 12:20:45;;;;;;;0.10;0.10;;;20.40;63.20;;;;;;5103226;27;45910;-65
2022/05/29 12:23:31;;;;;;;0.57;0.30;;;20.40;63.30;;;;;;5107236;27;45239;-65
2022/05/29 12:26:01;;;;;;;0.35;0.22;;;20.40;63.30;;;;;;5106470;27;45516;-65
2022/05/29 12:28:40;;;;;;;0.57;0.20;;;20.40;64.50;;;;;;5102794;27;45141;-65
2022/05/29 12:31:09;;;;;;;0.22;0.22;;;20.40;63.60;;;;;;5101164;27;45287;-65
2022/05/29 12:33:36;;;;;;;0.63;0.30;;;20.40;63.60;;;;;;5103433;27;47268;-65
2022/05/29 12:36:15;;;;;;;1.17;0.28;;;20.40;63.90;;;;;;5105045;27;45366;-65
2022/05/29 12:38:54;;;;;;;0.30;0.28;;;20.40;63.80;;;;;;5108326;27;45247;-65
2022/05/29 12:41:46;;;;;;;0.30;0.20;;;20.40;64.00;;;;;;5102658;27;45384;-65
2022/05/29 12:44:38;;;;;;;0.63;0.30;;;20.40;64.10;;;;;;5106395;27;46621;-65
2022/05/29 12:47:22;;;;;;;0.85;0.43;;;20.30;63.80;;;;;;5106711;27;45276;-65
2022/05/29 12:50:06;;;;;;;0.47;0.30;;;20.30;63.80;;;;;;5101671;27;45247;-65
2022/05/29 12:52:47;;;;;;;0.20;0.20;;;20.40;64.00;;;;;;5101420;27;45500;-65
2022/05/29 12:55:32;;;;;;;0.52;0.32;;;20.40;64.00;;;;;;5106955;27;45220;-65
2022/05/29 12:58:26;;;;;;;0.45;0.38;;;20.30;63.80;;;;;;5106976;27;45366;-65
2022/05/29 13:01:10;;;;;;;0.15;0.15;;;20.30;63.70;;;;;;5098577;27;45343;-65
2022/05/29 13:04:24;;;;;;;0.20;0.20;;;20.40;63.90;;;;;;5104540;27;45265;-67
2022/05/29 13:07:12;;;;;;;0.13;0.13;;;20.40;63.90;;;;;;5027089;27;46810;-65
2022/05/29 13:10:01;;;;;;;0.38;0.30;;;20.40;63.80;;;;;;5103492;27;45457;-65
2022/05/29 13:12:32;;;;;;;0.47;0.30;;;20.40;63.80;;;;;;5097663;27;45303;-65
2022/05/29 13:15:03;;;;;;;0.30;0.15;;;20.40;64.80;;;;;;5099656;27;45311;-63
2022/05/29 13:17:34;;;;;;;1.23;0.40;;;20.40;63.60;;;;;;5091497;27;45965;-65
2022/05/29 13:20:07;;;;;;;2.80;0.50;;;20.40;63.90;;;;;;5101448;27;45437;-65
2022/05/29 13:22:49;;;;;;;1.88;0.47;;;20.40;63.60;;;;;;5097950;27;45422;-65
2022/05/29 13:25:17;;;;;;;0.93;0.22;;;20.40;63.40;;;;;;5108048;27;45518;-65
2022/05/29 13:27:44;;;;;;;0.75;0.30;;;20.40;63.10;;;;;;5107702;27;46297;-65
2022/05/29 13:30:53;;;;;;;0.20;0.20;;;20.40;63.10;;;;;;5109699;27;45353;-65
2022/05/29 13:33:54;;;;;;;1.55;0.20;;;20.40;63.00;;;;;;5088257;28;45179;-65
2022/05/29 13:37:00;;;;;;;1.23;0.30;;;20.40;62.90;;;;;;4996212;28;45293;-65
2022/05/29 13:40:03;;;;;;;0.20;0.20;;;20.40;62.90;;;;;;5101081;27;45378;-65
2022/05/29 13:42:43;;;;;;;0.20;0.17;;;20.40;62.70;;;;;;5110230;27;45240;-65
2022/05/29 13:45:37;;;;;;;0.30;0.28;;;20.40;62.60;;;;;;5109434;27;45318;-65
2022/05/29 13:48:17;;;;;;;0.50;0.30;;;20.40;62.80;;;;;;5044507;28;45544;-65
2022/05/29 13:50:52;;;;;;;0.82;0.28;;;20.40;62.90;;;;;;5107755;27;45473;-65